createdAt,value
2018-06-08T00:01:36.536Z,98.90
2018-06-08T00:04:08.048Z,98.90
2018-06-08T00:06:39.676Z,99.30
2018-06-08T00:11:51.313Z,99.50
2018-06-08T00:14:22.581Z,99.50
2018-06-08T00:16:59.769Z,99.00
2018-06-08T00:19:31.187Z,99.00
2018-06-08T00:22:02.862Z,99.20
2018-06-08T00:24:34.742Z,99.30
2018-06-08T00:27:06.024Z,99.50
2018-06-08T00:29:37.529Z,99.60
2018-06-08T00:32:12.796Z,99.70
2018-06-08T00:34:45.002Z,99.80
2018-06-08T00:37:16.866Z,99.90
2018-06-08T00:39:48.753Z,99.30
2018-06-08T00:42:19.761Z,99.00
2018-06-08T00:44:51.461Z,98.90
2018-06-08T00:47:22.430Z,98.30
2018-06-08T00:49:53.784Z,97.90
2018-06-08T00:52:25.282Z,98.00
2018-06-08T00:54:56.741Z,98.50
2018-06-08T00:57:27.741Z,98.00
2018-06-08T01:00:00.523Z,97.60
2018-06-08T01:02:34.408Z,97.50
2018-06-08T01:05:05.578Z,97.60
2018-06-08T01:07:36.913Z,97.80
2018-06-08T01:10:08.639Z,98.20
2018-06-08T01:12:40.618Z,98.40
2018-06-08T01:15:12.152Z,98.40
2018-06-08T01:17:47.979Z,97.80
2018-06-08T01:20:19.446Z,97.90
2018-06-08T01:22:52.648Z,98.00
2018-06-08T01:25:23.865Z,97.80
2018-06-08T01:27:54.776Z,97.80
2018-06-08T01:30:26.062Z,98.00
2018-06-08T01:33:05.489Z,97.90
2018-06-08T01:35:36.642Z,97.80
2018-06-08T01:38:08.101Z,97.70
2018-06-08T01:40:39.484Z,97.80
2018-06-08T01:43:10.925Z,98.00
2018-06-08T01:45:44.234Z,98.10
2018-06-08T01:48:15.692Z,97.90
2018-06-08T01:50:46.854Z,98.00
2018-06-08T01:53:19.527Z,97.80
2018-06-08T01:55:54.934Z,98.10
2018-06-08T01:58:26.452Z,97.70
2018-06-08T02:01:02.349Z,97.60
2018-06-08T02:03:37.607Z,98.00
2018-06-08T02:06:08.597Z,98.20
2018-06-08T02:08:39.744Z,98.60
2018-06-08T02:11:11.737Z,98.80
2018-06-08T02:13:43.901Z,98.30
2018-06-08T02:16:14.744Z,98.70
2018-06-08T02:18:46.318Z,98.80
2018-06-08T02:21:18.877Z,98.90
2018-06-08T02:23:50.440Z,98.90
2018-06-08T02:26:26.780Z,98.80
2018-06-08T02:28:57.668Z,98.40
2018-06-08T02:31:28.779Z,98.20
2018-06-08T02:34:00.040Z,98.50
2018-06-08T02:36:31.145Z,98.70
2018-06-08T02:39:03.178Z,99.00
2018-06-08T02:41:45.868Z,99.00
2018-06-08T02:44:17.065Z,99.30
2018-06-08T02:46:48.300Z,99.40
2018-06-08T02:49:20.071Z,99.00
2018-06-08T02:54:22.916Z,99.30
2018-06-08T02:56:55.648Z,99.00
2018-06-08T02:59:31.597Z,98.60
2018-06-08T03:02:03.282Z,97.90
2018-06-08T03:04:35.184Z,97.70
2018-06-08T03:07:10.595Z,98.00
2018-06-08T03:09:42.176Z,97.90
2018-06-08T03:12:14.676Z,98.10
2018-06-08T03:14:46.188Z,98.10
2018-06-08T03:17:21.417Z,97.70
2018-06-08T03:19:54.439Z,97.50
2018-06-08T03:22:30.212Z,97.70
2018-06-08T03:25:01.455Z,97.50
2018-06-08T03:27:39.142Z,97.10
2018-06-08T03:30:10.248Z,96.60
2018-06-08T03:32:41.638Z,96.90
2018-06-08T03:35:16.757Z,96.30
2018-06-08T03:37:49.309Z,96.50
2018-06-08T03:40:20.772Z,95.90
2018-06-08T03:42:51.579Z,96.30
2018-06-08T03:45:22.472Z,96.40
2018-06-08T03:47:54.164Z,96.10
2018-06-08T03:50:25.313Z,96.50
2018-06-08T03:52:56.535Z,96.00
2018-06-08T03:55:27.667Z,96.30
2018-06-08T03:57:58.950Z,95.90
2018-06-08T04:00:30.280Z,96.40
2018-06-08T04:03:01.440Z,96.50
2018-06-08T04:05:32.319Z,96.30
2018-06-08T04:08:03.493Z,96.40
2018-06-08T04:10:34.610Z,96.30
2018-06-08T04:13:05.261Z,96.60
2018-06-08T04:15:39.756Z,96.20
2018-06-08T04:18:11.616Z,96.00
2018-06-08T04:23:13.862Z,95.30
2018-06-08T04:25:45.611Z,95.30
2018-06-08T04:28:16.827Z,95.30
2018-06-08T04:30:48.128Z,95.30
2018-06-08T04:33:19.713Z,95.60
2018-06-08T04:35:51.746Z,94.80
2018-06-08T04:38:23.825Z,95.00
2018-06-08T04:40:57.287Z,94.90
2018-06-08T04:43:28.458Z,94.90
2018-06-08T04:46:08.427Z,95.30
2018-06-08T04:48:39.602Z,95.00
2018-06-08T04:51:10.380Z,95.10
2018-06-08T04:53:46.621Z,94.60
2018-06-08T04:56:18.915Z,94.70
2018-06-08T04:58:50.698Z,94.90
2018-06-08T05:01:21.365Z,93.40
2018-06-08T05:04:09.221Z,93.40
2018-06-08T05:06:43.344Z,92.90
2018-06-08T05:13:41.271Z,93.10
2018-06-08T05:16:13.967Z,92.80
2018-06-08T05:18:46.468Z,93.10
2018-06-08T05:21:18.753Z,92.60
2018-06-08T05:23:51.933Z,92.90
2018-06-08T05:26:23.087Z,93.10
2018-06-08T05:28:53.397Z,92.90
2018-06-08T05:31:24.578Z,92.80
2018-06-08T05:33:55.902Z,92.20
2018-06-08T05:36:26.310Z,92.50
2018-06-08T05:41:30.591Z,92.10
2018-06-08T05:44:00.941Z,92.60
2018-06-08T05:46:32.220Z,93.30
2018-06-08T05:49:03.052Z,93.00
2018-06-08T05:54:05.864Z,93.50
2018-06-08T05:56:36.695Z,92.90
2018-06-08T05:59:08.481Z,92.40
2018-06-08T06:01:39.140Z,91.60
2018-06-08T06:04:12.844Z,91.70
2018-06-08T06:06:43.393Z,91.60
2018-06-08T06:09:14.463Z,91.20
2018-06-08T06:11:45.681Z,90.90
2018-06-08T06:14:17.377Z,89.80
2018-06-08T06:16:48.173Z,89.70
2018-06-08T06:19:19.915Z,89.80
2018-06-08T06:21:51.776Z,89.30
2018-06-08T06:24:23.622Z,89.40
2018-06-08T06:26:54.703Z,89.50
2018-06-08T06:29:25.107Z,89.80
2018-06-08T06:31:55.664Z,89.30
2018-06-08T06:34:26.833Z,88.90
2018-06-08T06:36:57.441Z,87.90
2018-06-08T06:39:27.911Z,88.20
2018-06-08T06:42:09.683Z,87.50
2018-06-08T06:44:40.933Z,87.40
2018-06-08T06:47:11.540Z,88.60
2018-06-08T06:49:43.330Z,87.20
2018-06-08T06:52:14.258Z,86.60
2018-06-08T06:54:45.364Z,86.60
2018-06-08T06:57:15.685Z,86.30
2018-06-08T06:59:47.937Z,87.00
2018-06-08T07:02:18.853Z,87.30
2018-06-08T07:04:54.388Z,85.30
2018-06-08T07:07:24.988Z,85.60
2018-06-08T07:10:01.001Z,85.90
2018-06-08T07:12:32.630Z,86.00
2018-06-08T07:15:07.691Z,85.50
2018-06-08T07:20:12.040Z,86.40
2018-06-08T07:22:43.274Z,86.40
2018-06-08T07:25:14.115Z,85.60
2018-06-08T07:27:44.970Z,83.30
2018-06-08T07:30:19.921Z,83.90
2018-06-08T07:32:55.064Z,85.00
2018-06-08T07:35:30.505Z,84.30
2018-06-08T07:38:01.681Z,84.50
2018-06-08T07:40:33.659Z,84.80
2018-06-08T07:43:04.837Z,83.30
2018-06-08T07:45:35.412Z,84.90
2018-06-08T07:48:11.625Z,84.00
2018-06-08T07:50:42.265Z,83.90
2018-06-08T07:53:13.589Z,83.30
2018-06-08T07:55:45.103Z,84.00
2018-06-08T07:58:15.872Z,83.10
2018-06-08T08:00:47.550Z,83.30
2018-06-08T08:03:18.386Z,82.60
2018-06-08T08:08:32.202Z,82.70
2018-06-08T08:11:02.672Z,81.80
2018-06-08T08:13:33.865Z,80.90
2018-06-08T08:16:05.126Z,81.50
2018-06-08T08:18:35.564Z,81.00
2018-06-08T08:21:08.044Z,80.10
2018-06-08T08:23:39.985Z,80.00
2018-06-08T08:26:12.317Z,80.90
2018-06-08T08:28:43.218Z,81.50
2018-06-08T08:31:15.094Z,81.10
2018-06-08T08:33:46.258Z,80.60
2018-06-08T08:38:49.029Z,80.50
2018-06-08T08:41:20.064Z,80.10
2018-06-08T08:43:50.353Z,80.60
2018-06-08T08:46:21.987Z,79.40
2018-06-08T08:48:53.482Z,79.60
2018-06-08T08:51:24.272Z,79.80
2018-06-08T08:54:01.947Z,79.60
2018-06-08T08:56:32.916Z,79.20
2018-06-08T08:59:03.965Z,79.30
2018-06-08T09:01:34.894Z,77.40
2018-06-08T09:04:05.528Z,78.10
2018-06-08T09:06:37.156Z,77.50
2018-06-08T09:09:08.721Z,76.20
2018-06-08T09:11:40.226Z,77.60
2018-06-08T09:14:11.539Z,77.60
2018-06-08T09:16:42.260Z,75.90
2018-06-08T09:19:22.888Z,75.90
2018-06-08T09:21:53.548Z,75.70
2018-06-08T09:24:29.526Z,75.70
2018-06-08T09:27:00.029Z,76.40
2018-06-08T09:29:35.437Z,75.50
2018-06-08T09:32:05.910Z,75.60
2018-06-08T09:34:43.869Z,76.40
2018-06-08T09:37:15.042Z,77.70
2018-06-08T09:39:50.095Z,78.20
2018-06-08T09:42:21.034Z,78.70
2018-06-08T09:44:55.441Z,78.70
2018-06-08T09:47:26.255Z,78.80
2018-06-08T09:49:56.355Z,79.00
2018-06-08T09:52:27.813Z,79.60
2018-06-08T09:54:59.798Z,80.10
2018-06-08T09:57:32.026Z,80.00
2018-06-08T10:00:02.221Z,81.00
2018-06-08T10:02:33.027Z,81.00
2018-06-08T10:05:03.899Z,83.20
2018-06-08T10:07:34.323Z,83.70
2018-06-08T10:10:06.311Z,84.40
2018-06-08T10:15:07.734Z,88.80
2018-06-08T10:17:38.482Z,89.20
2018-06-08T10:20:11.431Z,89.20
2018-06-08T10:22:47.516Z,89.40
2018-06-08T10:25:23.431Z,90.70
2018-06-08T10:27:54.137Z,90.50
2018-06-08T10:30:24.344Z,91.10
2018-06-08T10:32:54.703Z,91.30
2018-06-08T10:35:25.788Z,91.60
2018-06-08T10:37:56.896Z,93.00
2018-06-08T10:40:27.246Z,93.70
2018-06-08T10:42:58.310Z,93.40
2018-06-08T10:45:28.989Z,94.00
2018-06-08T10:50:29.059Z,95.60
2018-06-08T10:52:59.759Z,95.90
2018-06-08T10:55:30.143Z,95.10
2018-06-08T10:58:00.024Z,95.00
2018-06-08T11:00:30.761Z,94.90
2018-06-08T11:03:01.808Z,95.40
2018-06-08T11:05:32.455Z,95.70
2018-06-08T11:08:02.124Z,95.10
2018-06-08T11:10:38.660Z,94.90
2018-06-08T11:13:08.908Z,93.50
2018-06-08T11:15:41.141Z,93.50
2018-06-08T11:18:15.072Z,94.50
2018-06-08T11:20:45.978Z,93.70
2018-06-08T11:23:17.035Z,93.00
2018-06-08T11:25:55.132Z,94.10
2018-06-08T11:28:26.573Z,93.70
2018-06-08T11:30:56.758Z,92.90
2018-06-08T11:33:27.186Z,93.00
2018-06-08T11:35:57.481Z,93.00
2018-06-08T11:38:27.942Z,93.90
2018-06-08T11:40:58.797Z,93.60
2018-06-08T11:43:29.810Z,94.00
2018-06-08T11:46:03.777Z,93.40
2018-06-08T11:48:38.838Z,93.30
2018-06-08T11:51:11.002Z,93.40
2018-06-08T11:53:43.366Z,92.10
2018-06-08T11:56:15.084Z,92.60
2018-06-08T11:58:48.351Z,92.00
2018-06-08T12:01:19.956Z,92.60
2018-06-08T12:03:51.280Z,92.20
2018-06-08T12:08:52.654Z,93.90
2018-06-08T12:11:35.508Z,93.60
2018-06-08T12:14:07.234Z,93.60
2018-06-08T12:16:45.392Z,92.90
2018-06-08T12:19:16.730Z,92.20
2018-06-08T12:21:48.746Z,92.80
2018-06-08T12:24:19.253Z,92.50
2018-06-08T12:26:50.176Z,92.70
2018-06-08T12:29:26.035Z,91.70
2018-06-08T12:31:56.998Z,91.50
2018-06-08T12:34:30.797Z,92.60
2018-06-08T12:37:01.001Z,92.10
2018-06-08T12:39:31.527Z,91.60
2018-06-08T12:42:01.784Z,92.20
2018-06-08T12:44:31.984Z,90.10
2018-06-08T12:47:03.636Z,89.30
2018-06-08T12:49:38.973Z,89.90
2018-06-08T12:52:10.133Z,87.60
2018-06-08T12:54:44.966Z,87.90
2018-06-08T12:57:15.940Z,88.20
2018-06-08T12:59:48.293Z,87.90
2018-06-08T13:02:18.197Z,86.10
2018-06-08T13:04:48.169Z,86.70
2018-06-08T13:07:20.335Z,83.20
2018-06-08T13:09:50.707Z,80.70
2018-06-08T13:12:28.387Z,82.60
2018-06-08T13:14:58.153Z,81.10
2018-06-08T13:17:30.018Z,80.50
2018-06-08T13:20:01.215Z,81.70
2018-06-08T13:22:33.077Z,80.50
2018-06-08T13:25:03.445Z,79.70
2018-06-08T13:27:34.088Z,78.60
2018-06-08T13:30:04.925Z,77.80
2018-06-08T13:32:35.244Z,77.30
2018-06-08T13:35:07.613Z,77.10
2018-06-08T13:37:37.967Z,74.10
2018-06-08T13:40:09.757Z,75.60
2018-06-08T13:42:40.522Z,74.90
2018-06-08T13:45:15.438Z,76.00
2018-06-08T13:47:46.608Z,76.70
2018-06-08T13:50:16.824Z,75.70
2018-06-08T13:52:47.249Z,73.50
2018-06-08T13:55:19.359Z,73.50
2018-06-08T13:57:49.957Z,75.00
2018-06-08T14:00:20.535Z,74.50
2018-06-08T14:02:51.372Z,74.60
2018-06-08T14:05:26.805Z,74.60
2018-06-08T14:07:56.624Z,72.80
2018-06-08T14:10:27.043Z,70.30
2018-06-08T14:12:56.814Z,69.90
2018-06-08T14:15:27.102Z,69.00
2018-06-08T14:17:57.792Z,69.50
2018-06-08T14:20:28.434Z,71.90
2018-06-08T14:22:59.691Z,73.30
2018-06-08T14:25:32.010Z,74.60
2018-06-08T14:28:02.876Z,75.70
2018-06-08T14:30:34.945Z,76.70
2018-06-08T14:33:06.742Z,77.30
2018-06-08T14:35:38.521Z,77.70
2018-06-08T14:38:13.227Z,78.40
2018-06-08T14:40:44.962Z,78.80
2018-06-08T14:43:15.943Z,80.10
2018-06-08T14:45:46.735Z,81.10
2018-06-08T14:48:17.247Z,81.50
2018-06-08T14:50:53.952Z,81.70
2018-06-08T14:53:28.774Z,82.60
2018-06-08T14:55:59.934Z,83.00
2018-06-08T14:58:30.608Z,82.80
2018-06-08T15:01:01.258Z,82.40
2018-06-08T15:03:36.622Z,82.80
2018-06-08T15:06:07.233Z,82.70
2018-06-08T15:08:38.499Z,82.20
2018-06-08T15:11:09.820Z,81.80
2018-06-08T15:13:40.762Z,80.90
2018-06-08T15:16:14.754Z,80.60
2018-06-08T15:18:45.832Z,80.30
2018-06-08T15:21:17.259Z,79.50
2018-06-08T15:23:48.556Z,80.10
2018-06-08T15:26:19.294Z,79.80
2018-06-08T15:28:50.204Z,78.80
2018-06-08T15:31:21.375Z,77.30
2018-06-08T15:33:51.523Z,76.30
2018-06-08T15:36:22.351Z,75.40
2018-06-08T15:38:52.799Z,73.90
2018-06-08T15:41:23.711Z,73.20
2018-06-08T15:43:53.975Z,72.70
2018-06-08T15:46:26.040Z,69.90
2018-06-08T15:48:56.082Z,68.80
2018-06-08T15:51:27.219Z,67.80
2018-06-08T15:54:00.048Z,67.20
2018-06-08T15:56:36.902Z,66.70
2018-06-08T15:59:09.882Z,66.50
2018-06-08T16:01:43.273Z,65.90
2018-06-08T16:04:15.893Z,66.00
2018-06-08T16:06:49.328Z,66.00
2018-06-08T16:09:21.647Z,65.00
2018-06-08T16:11:55.955Z,63.90
2018-06-08T16:14:28.258Z,65.10
2018-06-08T16:17:01.949Z,64.80
2018-06-08T16:19:35.531Z,65.40
2018-06-08T16:22:07.817Z,65.00
2018-06-08T16:24:40.815Z,65.30
2018-06-08T16:27:14.701Z,66.00
2018-06-08T16:29:47.355Z,66.50
2018-06-08T16:32:20.470Z,65.90
2018-06-08T16:34:52.882Z,67.40
2018-06-08T16:37:25.319Z,68.50
2018-06-08T16:39:58.067Z,69.70
2018-06-08T16:42:30.804Z,70.10
2018-06-08T16:45:03.056Z,71.10
2018-06-08T16:47:35.745Z,71.20
2018-06-08T16:50:08.376Z,70.90
2018-06-08T16:52:41.220Z,70.40
2018-06-08T16:55:13.808Z,70.60
2018-06-08T16:57:47.384Z,71.00
2018-06-08T17:02:53.521Z,73.70
2018-06-08T17:05:47.417Z,74.90
2018-06-08T17:08:20.566Z,75.50
2018-06-08T17:10:53.494Z,74.90
2018-06-08T17:13:32.062Z,75.00
2018-06-08T17:16:05.371Z,75.00
2018-06-08T17:18:38.742Z,75.50
2018-06-08T17:21:11.204Z,76.30
2018-06-08T17:23:44.858Z,76.40
2018-06-08T17:26:17.399Z,76.00
2018-06-08T17:28:54.246Z,76.30
2018-06-08T17:31:29.506Z,76.70
2018-06-08T17:34:02.421Z,77.00
2018-06-08T17:36:35.239Z,77.70
2018-06-08T17:39:09.457Z,77.70
2018-06-08T17:41:42.593Z,78.20
2018-06-08T17:44:16.497Z,78.30
2018-06-08T17:46:49.954Z,78.60
2018-06-08T17:49:22.433Z,78.40
2018-06-08T17:51:56.086Z,78.30
2018-06-08T17:54:28.710Z,78.40
2018-06-08T17:57:07.961Z,78.90
2018-06-08T17:59:41.453Z,79.60
2018-06-08T18:02:15.492Z,79.70
2018-06-08T18:04:49.369Z,80.00
2018-06-08T18:07:23.029Z,79.60
2018-06-08T18:09:58.617Z,79.50
2018-06-08T18:12:31.562Z,79.70
2018-06-08T18:15:04.495Z,80.10
2018-06-08T18:17:38.597Z,80.40
2018-06-08T18:20:11.869Z,80.70
2018-06-08T18:22:44.892Z,80.90
2018-06-08T18:25:19.238Z,80.70
2018-06-08T18:27:55.368Z,81.10
2018-06-08T18:30:28.238Z,81.50
2018-06-08T18:33:01.283Z,81.50
2018-06-08T18:35:34.205Z,81.90
2018-06-08T18:38:08.243Z,82.10
2018-06-08T18:40:41.745Z,81.80
2018-06-08T18:43:15.408Z,82.10
2018-06-08T18:45:47.555Z,82.30
2018-06-08T18:48:20.501Z,82.40
2018-06-08T18:50:55.269Z,82.80
2018-06-08T18:53:32.671Z,82.90
2018-06-08T18:56:06.915Z,82.80
2018-06-08T18:58:39.876Z,83.10
2018-06-08T19:01:13.177Z,83.10
2018-06-08T19:03:50.643Z,83.30
2018-06-08T19:06:24.155Z,83.40
2018-06-08T19:08:58.494Z,83.40
2018-06-08T19:11:32.106Z,83.80
2018-06-08T19:14:05.588Z,83.90
2018-06-08T19:16:39.066Z,83.70
2018-06-08T19:19:15.705Z,84.00
2018-06-08T19:21:54.807Z,84.10
2018-06-08T19:24:28.781Z,84.40
2018-06-08T19:27:01.172Z,84.30
2018-06-08T19:29:34.319Z,84.80
2018-06-08T19:32:06.428Z,84.40
2018-06-08T19:34:39.137Z,84.40
2018-06-08T19:37:16.818Z,84.80
2018-06-08T19:39:49.961Z,86.00
2018-06-08T19:42:23.026Z,86.70
2018-06-08T19:44:56.571Z,87.20
2018-06-08T19:47:31.836Z,87.40
2018-06-08T19:50:06.889Z,87.80
2018-06-08T19:52:39.201Z,88.10
2018-06-08T19:55:17.704Z,87.80
2018-06-08T19:57:50.652Z,88.10
2018-06-08T20:00:24.692Z,88.20
2018-06-08T20:02:58.894Z,88.10
2018-06-08T20:05:32.223Z,88.10
2018-06-08T20:08:05.983Z,88.00
2018-06-08T20:10:38.374Z,88.20
2018-06-08T20:13:11.722Z,88.70
2018-06-08T20:15:47.616Z,88.70
2018-06-08T20:18:20.020Z,88.90
2018-06-08T20:20:54.606Z,89.30
2018-06-08T20:23:28.813Z,89.80
2018-06-08T20:26:02.766Z,89.80
2018-06-08T20:28:36.104Z,89.90
2018-06-08T20:31:12.501Z,89.60
2018-06-08T20:33:46.338Z,89.50
2018-06-08T20:36:19.989Z,89.80
2018-06-08T20:38:56.118Z,90.00
2018-06-08T20:41:30.077Z,90.00
2018-06-08T20:44:03.167Z,90.30
2018-06-08T20:46:36.312Z,90.70
2018-06-08T20:49:09.109Z,90.70
2018-06-08T20:51:43.139Z,91.10
2018-06-08T20:54:18.902Z,90.40
2018-06-08T20:59:00.881Z,90.60
2018-06-08T21:01:40.065Z,90.90
2018-06-08T21:04:12.825Z,90.60
2018-06-08T21:06:46.320Z,90.90
2018-06-08T21:09:19.481Z,90.50
2018-06-08T21:11:54.438Z,90.60
2018-06-08T21:14:28.706Z,90.30
2018-06-08T21:17:05.357Z,90.10
2018-06-08T21:19:40.063Z,90.20
2018-06-08T21:22:15.401Z,89.70
2018-06-08T21:24:49.088Z,90.10
2018-06-08T21:27:22.959Z,90.20
2018-06-08T21:29:56.383Z,90.60
2018-06-08T21:32:29.493Z,90.90
2018-06-08T21:35:03.231Z,91.00
2018-06-08T21:37:36.128Z,91.10
2018-06-08T21:40:09.231Z,91.40
2018-06-08T21:42:40.834Z,91.30
2018-06-08T21:45:13.140Z,91.90
2018-06-08T21:47:57.108Z,91.90
2018-06-08T21:50:29.603Z,92.20
2018-06-08T21:53:02.043Z,92.60
2018-06-08T21:58:08.634Z,92.70
2018-06-08T22:00:42.519Z,92.70
2018-06-08T22:03:14.780Z,92.90
2018-06-08T22:05:46.262Z,93.30
2018-06-08T22:08:18.718Z,93.20
2018-06-08T22:10:51.513Z,93.30
2018-06-08T22:13:26.312Z,93.90
2018-06-08T22:15:58.778Z,94.00
2018-06-08T22:18:30.924Z,94.00
2018-06-08T22:21:03.660Z,94.30
2018-06-08T22:23:36.655Z,94.60
2018-06-08T22:26:12.977Z,94.30
2018-06-08T22:28:55.131Z,94.60
2018-06-08T22:33:59.647Z,95.10
2018-06-08T22:36:33.522Z,94.90
2018-06-08T22:39:07.636Z,95.10
2018-06-08T22:41:54.858Z,95.00
2018-06-08T22:44:27.103Z,94.70
2018-06-08T22:47:00.268Z,94.40
2018-06-08T22:49:38.155Z,94.40
2018-06-08T22:52:11.985Z,94.10
2018-06-08T22:54:50.999Z,93.70
2018-06-08T22:57:23.824Z,93.70
2018-06-08T23:00:01.605Z,93.60
2018-06-08T23:02:36.430Z,93.60
2018-06-08T23:05:09.814Z,93.10
2018-06-08T23:10:38.709Z,93.30
2018-06-08T23:13:12.395Z,93.50
2018-06-08T23:15:46.299Z,93.50
2018-06-08T23:18:23.537Z,93.30
2018-06-08T23:20:55.401Z,93.30
2018-06-08T23:26:20.344Z,93.70
2018-06-08T23:29:04.111Z,93.60
2018-06-08T23:31:39.729Z,93.70
2018-06-08T23:34:13.557Z,93.50
2018-06-08T23:36:48.412Z,93.60
2018-06-08T23:39:21.931Z,93.60
2018-06-08T23:41:58.418Z,93.60
2018-06-08T23:44:31.445Z,93.60
2018-06-08T23:47:03.413Z,93.70
2018-06-08T23:49:35.584Z,93.50
2018-06-08T23:52:12.758Z,93.30
2018-06-08T23:54:45.337Z,93.20
2018-06-08T23:57:17.758Z,93.00
2018-06-08T23:59:56.349Z,93.10
